createdAt,value
2018-07-17T00:02:28.156Z,24.38
2018-07-17T00:04:57.176Z,24.38
2018-07-17T00:07:26.176Z,24.19
2018-07-17T00:09:55.092Z,24.17
2018-07-17T00:12:24.006Z,24.24
2018-07-17T00:14:52.956Z,24.01
2018-07-17T00:17:21.856Z,23.68
2018-07-17T00:19:50.808Z,23.64
2018-07-17T00:22:19.700Z,23.68
2018-07-17T00:24:48.636Z,23.67
2018-07-17T00:27:17.604Z,23.68
2018-07-17T00:29:46.544Z,23.73
2018-07-17T00:32:15.444Z,23.60
2018-07-17T00:34:44.462Z,23.73
2018-07-17T00:37:13.362Z,23.88
2018-07-17T00:39:42.455Z,24.02
2018-07-17T00:42:11.534Z,23.99
2018-07-17T00:44:40.443Z,23.87
2018-07-17T00:47:09.487Z,23.87
2018-07-17T00:49:38.312Z,23.65
2018-07-17T00:52:07.560Z,23.74
2018-07-17T00:54:36.545Z,23.72
2018-07-17T00:57:05.484Z,23.72
2018-07-17T00:59:34.439Z,23.79
2018-07-17T01:02:08.760Z,23.85
2018-07-17T01:04:43.276Z,23.72
2018-07-17T01:07:17.690Z,23.73
2018-07-17T01:09:51.891Z,23.81
2018-07-17T01:12:20.101Z,23.66
2018-07-17T01:14:54.362Z,23.65
2018-07-17T01:17:23.734Z,23.64
2018-07-17T01:19:52.704Z,23.61
2018-07-17T01:22:21.635Z,23.75
2018-07-17T01:24:50.634Z,23.66
2018-07-17T01:27:19.598Z,23.57
2018-07-17T01:29:48.585Z,23.38
2018-07-17T01:32:17.519Z,23.39
2018-07-17T01:34:46.418Z,23.40
2018-07-17T01:37:15.459Z,23.37
2018-07-17T01:39:44.402Z,23.48
2018-07-17T01:42:13.338Z,23.54
2018-07-17T01:44:42.236Z,23.64
2018-07-17T01:47:11.123Z,23.60
2018-07-17T01:49:40.092Z,23.48
2018-07-17T01:52:09.916Z,23.47
2018-07-17T01:54:38.809Z,23.64
2018-07-17T01:57:07.726Z,23.66
2018-07-17T01:59:36.702Z,23.53
2018-07-17T02:02:05.892Z,23.52
2018-07-17T02:04:34.834Z,23.42
2018-07-17T02:07:03.730Z,23.29
2018-07-17T02:09:32.945Z,23.47
2018-07-17T02:12:01.961Z,23.47
2018-07-17T02:14:30.944Z,23.56
2018-07-17T02:16:59.819Z,23.60
2018-07-17T02:19:28.742Z,23.62
2018-07-17T02:21:57.718Z,23.44
2018-07-17T02:24:26.792Z,23.07
2018-07-17T02:26:55.736Z,23.11
2018-07-17T02:29:24.706Z,23.10
2018-07-17T02:31:53.664Z,23.17
2018-07-17T02:34:22.583Z,23.29
2018-07-17T02:36:51.548Z,23.31
2018-07-17T02:39:20.548Z,23.43
2018-07-17T02:41:49.418Z,23.36
2018-07-17T02:44:18.317Z,22.88
2018-07-17T02:46:47.220Z,22.95
2018-07-17T02:49:16.132Z,22.99
2018-07-17T02:51:45.256Z,22.75
2018-07-17T02:54:14.200Z,22.74
2018-07-17T02:56:43.229Z,22.74
2018-07-17T02:59:12.136Z,22.71
2018-07-17T03:01:41.075Z,22.66
2018-07-17T03:04:10.096Z,22.68
2018-07-17T03:06:39.110Z,22.52
2018-07-17T03:09:08.345Z,22.49
2018-07-17T03:11:37.410Z,22.44
2018-07-17T03:14:11.885Z,22.66
2018-07-17T03:16:40.864Z,22.40
2018-07-17T03:19:09.890Z,22.38
2018-07-17T03:21:38.855Z,22.42
2018-07-17T03:24:08.186Z,22.41
2018-07-17T03:26:37.197Z,22.27
2018-07-17T03:29:06.134Z,22.19
2018-07-17T03:31:35.082Z,22.04
2018-07-17T03:34:04.223Z,22.12
2018-07-17T03:36:33.164Z,21.92
2018-07-17T03:39:02.048Z,21.87
2018-07-17T03:41:30.959Z,21.97
2018-07-17T03:43:59.936Z,21.78
2018-07-17T03:46:28.827Z,21.87
2018-07-17T03:48:57.876Z,21.72
2018-07-17T03:51:26.870Z,21.74
2018-07-17T03:53:55.922Z,21.65
2018-07-17T03:56:24.856Z,21.63
2018-07-17T03:58:53.871Z,21.56
2018-07-17T04:01:22.814Z,21.63
2018-07-17T04:03:51.711Z,21.42
2018-07-17T04:06:20.667Z,21.47
2018-07-17T04:08:49.649Z,21.54
2018-07-17T04:11:24.047Z,21.51
2018-07-17T04:13:53.056Z,21.35
2018-07-17T04:16:21.979Z,21.45
2018-07-17T04:18:50.920Z,21.49
2018-07-17T04:21:19.871Z,21.40
2018-07-17T04:23:48.799Z,21.37
2018-07-17T04:26:17.806Z,21.42
2018-07-17T04:28:46.736Z,21.23
2018-07-17T04:31:15.695Z,21.36
2018-07-17T04:33:44.689Z,21.47
2018-07-17T04:36:13.690Z,21.51
2018-07-17T04:38:42.716Z,21.62
2018-07-17T04:41:11.628Z,21.63
2018-07-17T04:43:40.591Z,21.61
2018-07-17T04:46:09.590Z,21.55
2018-07-17T04:48:38.504Z,21.65
2018-07-17T04:51:07.770Z,21.29
2018-07-17T04:53:36.846Z,21.21
2018-07-17T04:56:05.847Z,21.59
2018-07-17T04:58:34.835Z,21.55
2018-07-17T05:01:03.915Z,21.46
2018-07-17T05:03:32.868Z,21.43
2018-07-17T05:06:01.822Z,21.43
2018-07-17T05:08:30.778Z,21.42
2018-07-17T05:10:59.835Z,21.26
2018-07-17T05:13:28.754Z,21.25
2018-07-17T05:15:57.698Z,21.44
2018-07-17T05:18:26.583Z,21.36
2018-07-17T05:20:55.584Z,21.22
2018-07-17T05:23:24.548Z,21.12
2018-07-17T05:25:53.589Z,21.01
2018-07-17T05:28:22.527Z,21.09
2018-07-17T05:30:51.487Z,21.15
2018-07-17T05:33:20.565Z,21.05
2018-07-17T05:35:49.601Z,21.11
2018-07-17T05:38:18.649Z,21.45
2018-07-17T05:40:47.800Z,21.40
2018-07-17T05:43:16.972Z,21.47
2018-07-17T05:45:45.936Z,21.51
2018-07-17T05:48:14.825Z,21.54
2018-07-17T05:50:43.797Z,21.48
2018-07-17T05:53:12.867Z,21.61
2018-07-17T05:55:41.907Z,21.92
2018-07-17T05:58:10.839Z,21.95
2018-07-17T06:00:39.853Z,21.98
2018-07-17T06:03:08.863Z,21.82
2018-07-17T06:05:37.849Z,22.14
2018-07-17T06:08:06.903Z,22.24
2018-07-17T06:10:35.935Z,22.11
2018-07-17T06:13:04.844Z,22.25
2018-07-17T06:15:33.790Z,22.47
2018-07-17T06:18:02.724Z,22.59
2018-07-17T06:20:31.632Z,22.37
2018-07-17T06:23:00.632Z,22.30
2018-07-17T06:25:29.600Z,22.17
2018-07-17T06:27:58.512Z,22.21
2018-07-17T06:30:27.498Z,22.17
2018-07-17T06:32:56.424Z,22.43
2018-07-17T06:35:25.344Z,22.52
2018-07-17T06:37:54.378Z,22.42
2018-07-17T06:40:23.326Z,22.43
2018-07-17T06:42:52.332Z,22.58
2018-07-17T06:45:21.307Z,22.71
2018-07-17T06:47:54.316Z,23.09
2018-07-17T06:50:23.339Z,23.95
2018-07-17T06:52:52.403Z,24.20
2018-07-17T06:55:21.355Z,24.98
2018-07-17T06:57:50.275Z,25.63
2018-07-17T07:00:19.273Z,25.71
2018-07-17T07:02:48.269Z,25.71
2018-07-17T07:05:17.322Z,25.84
2018-07-17T07:07:46.222Z,26.51
2018-07-17T07:10:15.239Z,27.02
2018-07-17T07:12:44.139Z,26.64
2018-07-17T07:15:13.095Z,26.83
2018-07-17T07:17:42.058Z,26.67
2018-07-17T07:20:11.038Z,27.39
2018-07-17T07:22:40.105Z,27.48
2018-07-17T07:25:09.059Z,27.21
2018-07-17T07:27:38.001Z,27.14
2018-07-17T07:30:07.295Z,27.26
2018-07-17T07:32:36.283Z,27.21
2018-07-17T07:35:05.357Z,27.28
2018-07-17T07:37:34.275Z,26.82
2018-07-17T07:40:03.566Z,26.17
2018-07-17T07:42:32.763Z,26.21
2018-07-17T07:45:01.799Z,26.28
2018-07-17T07:47:30.791Z,26.08
2018-07-17T07:50:00.302Z,26.23
2018-07-17T07:52:29.221Z,26.29
2018-07-17T08:16:16.781Z,26.27
2018-07-17T09:10:35.585Z,25.25
2018-07-17T09:13:06.708Z,25.53
2018-07-17T09:15:36.006Z,24.89
2018-07-17T09:18:05.233Z,25.35
2018-07-17T09:20:34.241Z,25.53
2018-07-17T09:23:08.600Z,25.67
2018-07-17T09:25:37.724Z,25.54
2018-07-17T09:28:06.762Z,25.47
2018-07-17T09:30:41.063Z,25.49
2018-07-17T09:33:10.015Z,25.36
2018-07-17T09:35:38.981Z,25.54
2018-07-17T09:38:08.692Z,25.40
2018-07-17T09:40:37.868Z,25.34
2018-07-17T09:43:07.069Z,25.45
2018-07-17T09:45:36.008Z,25.20
2018-07-17T09:48:06.085Z,25.23
2018-07-17T09:50:34.988Z,25.32
2018-07-17T09:53:03.934Z,25.37
2018-07-17T09:55:32.921Z,25.35
2018-07-17T09:58:01.923Z,25.57
2018-07-17T10:00:39.065Z,25.72
2018-07-17T10:03:08.071Z,25.68
2018-07-17T10:05:37.083Z,25.52
2018-07-17T10:08:06.401Z,24.83
2018-07-17T10:10:35.357Z,25.16
2018-07-17T10:13:04.387Z,25.16
2018-07-17T10:15:33.369Z,25.00
2018-07-17T10:18:02.348Z,25.01
2018-07-17T10:20:31.284Z,24.93
2018-07-17T10:23:00.263Z,24.80
2018-07-17T10:25:29.221Z,25.04
2018-07-17T10:27:58.256Z,24.81
2018-07-17T10:30:27.205Z,24.77
2018-07-17T10:32:56.199Z,25.01
2018-07-17T10:35:31.486Z,25.14
2018-07-17T10:38:00.418Z,24.74
2018-07-17T10:40:29.396Z,24.67
2018-07-17T10:42:58.313Z,24.69
2018-07-17T10:45:27.359Z,24.80
2018-07-17T10:47:57.100Z,24.90
2018-07-17T10:50:26.032Z,25.10
2018-07-17T10:52:57.062Z,25.04
2018-07-17T10:55:26.043Z,24.98
2018-07-17T10:57:55.177Z,24.93
2018-07-17T11:00:24.478Z,25.14
2018-07-17T11:02:53.439Z,25.19
2018-07-17T11:05:22.340Z,25.03
2018-07-17T11:07:51.291Z,24.96
2018-07-17T11:10:21.202Z,24.84
2018-07-17T11:12:55.420Z,25.07
2018-07-17T11:15:24.421Z,25.09
2018-07-17T11:18:03.286Z,24.63
2018-07-17T11:20:32.366Z,24.94
2018-07-17T11:23:01.282Z,25.14
2018-07-17T11:25:30.404Z,25.10
2018-07-17T11:27:59.343Z,25.01
2018-07-17T11:30:28.240Z,25.08
2018-07-17T11:33:00.714Z,24.54
2018-07-17T11:35:29.683Z,24.73
2018-07-17T11:37:58.700Z,24.29
2018-07-17T11:40:27.709Z,24.47
2018-07-17T11:42:56.674Z,24.67
2018-07-17T11:45:25.563Z,24.61
2018-07-17T11:48:01.444Z,24.13
2018-07-17T11:50:30.450Z,24.37
2018-07-17T11:52:59.483Z,24.51
2018-07-17T11:55:28.424Z,24.56
2018-07-17T11:57:57.428Z,24.52
2018-07-17T12:00:31.996Z,24.48
2018-07-17T12:03:00.978Z,24.43
2018-07-17T12:05:30.103Z,24.25
2018-07-17T12:07:58.994Z,24.08
2018-07-17T12:10:27.952Z,24.32
2018-07-17T12:12:56.980Z,23.99
2018-07-17T12:15:25.843Z,24.23
2018-07-17T12:18:07.495Z,24.25
2018-07-17T12:20:36.695Z,24.18
2018-07-17T12:23:05.804Z,24.23
2018-07-17T12:25:34.899Z,24.04
2018-07-17T12:28:04.233Z,24.30
2018-07-17T12:30:33.071Z,24.45
2018-07-17T12:33:02.170Z,24.29
2018-07-17T12:35:31.175Z,24.23
2018-07-17T12:38:00.124Z,24.04
2018-07-17T12:40:29.024Z,24.13
2018-07-17T12:43:01.024Z,23.93
2018-07-17T12:45:29.950Z,24.05
2018-07-17T12:48:00.672Z,24.14
2018-07-17T12:50:29.599Z,24.12
2018-07-17T12:52:58.605Z,24.18
2018-07-17T12:55:27.693Z,23.67
2018-07-17T12:57:56.565Z,24.03
2018-07-17T13:00:37.762Z,24.00
2018-07-17T13:03:07.338Z,24.08
2018-07-17T13:05:37.324Z,23.95
2018-07-17T13:08:06.291Z,23.99
2018-07-17T13:10:35.294Z,24.02
2018-07-17T13:13:04.228Z,24.22
2018-07-17T13:15:33.113Z,23.89
2018-07-17T13:18:02.674Z,24.07
2018-07-17T13:20:31.572Z,24.08
2018-07-17T13:23:00.550Z,24.20
2018-07-17T13:25:29.556Z,24.13
2018-07-17T13:27:58.517Z,24.02
2018-07-17T13:30:27.491Z,24.23
2018-07-17T13:32:56.472Z,23.99
2018-07-17T13:35:25.387Z,23.92
2018-07-17T13:37:54.323Z,23.66
2018-07-17T13:40:23.304Z,23.65
2018-07-17T13:42:52.306Z,23.42
2018-07-17T13:45:21.440Z,23.45
2018-07-17T13:47:50.342Z,23.59
2018-07-17T13:50:19.353Z,23.70
2018-07-17T13:52:48.257Z,23.77
2018-07-17T13:55:17.103Z,23.88
2018-07-17T13:57:46.144Z,23.87
2018-07-17T14:00:15.088Z,23.81
2018-07-17T14:02:44.101Z,23.72
2018-07-17T14:05:13.033Z,23.61
2018-07-17T14:07:42.030Z,23.54
2018-07-17T14:10:10.924Z,23.44
2018-07-17T14:12:39.852Z,23.41
2018-07-17T14:15:08.992Z,23.24
2018-07-17T14:17:38.021Z,23.45
2018-07-17T14:20:07.003Z,23.37
2018-07-17T14:22:35.933Z,23.39
2018-07-17T14:25:04.876Z,23.46
2018-07-17T14:27:33.895Z,23.34
2018-07-17T14:30:02.806Z,23.39
2018-07-17T14:32:35.029Z,23.25
2018-07-17T14:35:04.351Z,23.42
2018-07-17T14:37:33.299Z,23.38
2018-07-17T14:40:02.344Z,23.24
2018-07-17T14:42:31.271Z,23.11
2018-07-17T14:45:00.179Z,23.19
2018-07-17T14:47:29.074Z,23.34
2018-07-17T14:49:57.977Z,23.56
2018-07-17T14:52:26.909Z,23.11
2018-07-17T14:54:55.889Z,23.32
2018-07-17T14:57:24.790Z,23.39
2018-07-17T14:59:53.695Z,23.15
2018-07-17T15:02:22.631Z,23.20
2018-07-17T15:04:51.659Z,23.32
2018-07-17T15:07:21.951Z,22.87
2018-07-17T15:09:50.936Z,22.92
2018-07-17T15:12:19.892Z,23.09
2018-07-17T15:14:48.816Z,23.23
2018-07-17T15:17:17.739Z,23.04
2018-07-17T15:19:46.714Z,23.22
2018-07-17T15:22:15.645Z,22.92
2018-07-17T15:24:44.552Z,23.01
2018-07-17T15:27:13.613Z,22.97
2018-07-17T15:29:42.579Z,22.79
2018-07-17T15:32:11.588Z,22.68
2018-07-17T15:34:40.476Z,22.69
2018-07-17T15:37:09.471Z,22.94
2018-07-17T15:39:38.430Z,23.16
2018-07-17T15:42:07.486Z,23.14
2018-07-17T15:44:36.397Z,23.23
2018-07-17T15:47:05.337Z,22.95
2018-07-17T15:49:34.264Z,22.97
2018-07-17T15:52:08.823Z,23.16
2018-07-17T15:54:37.941Z,23.07
2018-07-17T15:57:06.943Z,22.76
2018-07-17T15:59:36.110Z,22.50
2018-07-17T16:02:05.048Z,22.64
2018-07-17T16:04:33.964Z,22.90
2018-07-17T16:07:02.908Z,22.81
2018-07-17T16:09:31.941Z,22.82
2018-07-17T16:12:00.870Z,22.83
2018-07-17T16:14:30.131Z,22.50
2018-07-17T16:16:58.753Z,22.56
2018-07-17T16:19:27.707Z,22.69
2018-07-17T16:21:56.692Z,22.50
2018-07-17T16:24:25.672Z,22.54
2018-07-17T16:26:54.754Z,22.80
2018-07-17T16:29:23.746Z,22.57
2018-07-17T16:31:52.755Z,22.56
2018-07-17T16:34:21.706Z,22.68
2018-07-17T16:36:50.691Z,22.38
2018-07-17T16:39:19.733Z,22.49
2018-07-17T16:41:48.638Z,22.69
2018-07-17T16:44:17.595Z,22.77
2018-07-17T16:46:46.560Z,22.82
2018-07-17T16:49:15.525Z,22.51
2018-07-17T16:51:44.535Z,22.48
2018-07-17T16:54:13.566Z,22.54
2018-07-17T16:56:42.502Z,22.71
2018-07-17T16:59:11.956Z,22.91
2018-07-17T17:01:40.906Z,22.93
2018-07-17T17:04:09.867Z,22.97
2018-07-17T17:06:38.966Z,22.87
2018-07-17T17:09:10.360Z,22.66
2018-07-17T17:11:39.460Z,22.92
2018-07-17T17:14:08.428Z,22.82
2018-07-17T17:16:37.568Z,22.75
2018-07-17T17:19:07.106Z,22.65
2018-07-17T17:21:36.057Z,22.77
2018-07-17T17:24:05.533Z,22.95
2018-07-17T17:26:34.918Z,22.60
2018-07-17T17:29:03.937Z,22.50
2018-07-17T17:31:32.904Z,22.74
2018-07-17T17:34:01.834Z,22.62
2018-07-17T17:36:30.924Z,22.75
2018-07-17T17:38:59.782Z,22.83
2018-07-17T17:41:28.907Z,22.90
2018-07-17T17:43:57.872Z,22.36
2018-07-17T17:46:26.862Z,22.50
2018-07-17T17:48:55.890Z,22.68
2018-07-17T17:51:24.780Z,22.76
2018-07-17T17:53:54.276Z,22.51
2018-07-17T17:56:23.266Z,22.78
2018-07-17T17:58:52.642Z,22.93
2018-07-17T18:01:21.641Z,22.69
2018-07-17T18:03:50.582Z,22.33
2018-07-17T18:06:19.504Z,22.42
2018-07-17T18:08:48.649Z,22.34
2018-07-17T18:11:17.565Z,22.54
2018-07-17T18:13:46.500Z,22.63
2018-07-17T18:16:15.520Z,22.66
2018-07-17T18:18:44.564Z,22.55
2018-07-17T18:21:13.488Z,22.42
2018-07-17T18:23:42.468Z,22.57
2018-07-17T18:26:11.429Z,22.81
2018-07-17T18:28:40.456Z,22.91
2018-07-17T18:31:09.551Z,22.90
2018-07-17T18:33:38.477Z,23.15
2018-07-17T18:36:07.396Z,23.11
2018-07-17T18:38:36.455Z,23.19
2018-07-17T18:41:05.431Z,22.91
2018-07-17T18:43:34.605Z,22.94
2018-07-17T18:46:04.362Z,22.93
2018-07-17T18:48:33.307Z,22.77
2018-07-17T18:51:02.396Z,22.78
2018-07-17T18:53:31.803Z,22.66
2018-07-17T18:56:00.800Z,22.67
2018-07-17T18:58:29.741Z,22.80
2018-07-17T19:00:58.759Z,22.76
2018-07-17T19:03:27.688Z,22.86
2018-07-17T19:05:56.628Z,22.82
2018-07-17T19:08:25.529Z,22.85
2018-07-17T19:10:54.508Z,22.89
2018-07-17T19:13:23.473Z,22.83
2018-07-17T19:15:52.481Z,22.65
2018-07-17T19:18:21.379Z,22.74
2018-07-17T19:20:50.628Z,22.89
2018-07-17T19:23:19.661Z,22.83
2018-07-17T19:25:48.623Z,22.66
2018-07-17T19:28:17.623Z,22.66
2018-07-17T19:30:46.599Z,22.66
2018-07-17T19:33:15.601Z,22.79
2018-07-17T19:35:44.652Z,22.58
2018-07-17T19:38:13.551Z,22.57
2018-07-17T19:40:42.622Z,22.55
2018-07-17T19:43:11.761Z,22.44
2018-07-17T19:45:40.800Z,22.46
2018-07-17T19:48:09.715Z,22.50
2018-07-17T19:50:38.673Z,22.44
2018-07-17T19:53:07.699Z,22.61
2018-07-17T19:55:36.725Z,22.67
2018-07-17T19:58:05.727Z,22.61
2018-07-17T20:00:34.669Z,22.48
2018-07-17T20:03:03.635Z,22.50
2018-07-17T20:05:32.649Z,22.56
2018-07-17T20:08:01.618Z,22.50
2018-07-17T20:10:30.550Z,22.50
2018-07-17T20:12:59.460Z,22.43
2018-07-17T20:15:28.423Z,22.26
2018-07-17T20:17:57.343Z,22.27
2018-07-17T20:20:26.303Z,22.12
2018-07-17T20:22:55.279Z,22.31
2018-07-17T20:25:24.291Z,22.15
2018-07-17T20:27:53.247Z,22.31
2018-07-17T20:30:22.177Z,22.36
2018-07-17T20:32:51.131Z,22.27
2018-07-17T20:35:20.076Z,22.19
2018-07-17T20:37:49.219Z,22.13
2018-07-17T20:40:18.224Z,22.13
2018-07-17T20:42:47.252Z,22.08
2018-07-17T20:45:16.229Z,21.93
2018-07-17T20:47:45.230Z,22.02
2018-07-17T20:50:14.160Z,22.00
2018-07-17T20:52:43.167Z,22.02
2018-07-17T20:55:12.248Z,22.03
2018-07-17T20:57:41.226Z,22.14
2018-07-17T21:00:10.206Z,22.12
2018-07-17T21:02:42.132Z,22.20
2018-07-17T21:05:11.098Z,22.16
2018-07-17T21:07:40.170Z,22.03
2018-07-17T21:10:09.146Z,22.07
2018-07-17T21:12:38.126Z,22.01
2018-07-17T21:15:07.137Z,21.92
2018-07-17T21:17:36.192Z,21.76
2018-07-17T21:20:05.506Z,21.77
2018-07-17T21:22:34.916Z,21.77
2018-07-17T21:25:03.935Z,21.89
2018-07-17T21:27:33.502Z,21.84
2018-07-17T21:30:02.532Z,21.73
2018-07-17T21:32:31.482Z,21.77
2018-07-17T21:35:00.478Z,21.67
2018-07-17T21:37:29.402Z,21.83
2018-07-17T21:39:58.666Z,21.86
2018-07-17T21:42:27.652Z,21.69
2018-07-17T21:44:56.574Z,21.69
2018-07-17T21:47:25.489Z,21.62
2018-07-17T21:49:54.440Z,21.79
2018-07-17T21:52:23.549Z,21.64
2018-07-17T21:54:52.461Z,21.45
2018-07-17T21:57:21.327Z,21.61
2018-07-17T21:59:50.344Z,21.67
2018-07-17T22:02:19.270Z,21.63
2018-07-17T22:04:48.212Z,21.78
2018-07-17T22:07:17.138Z,21.69
2018-07-17T22:09:46.152Z,21.72
2018-07-17T22:12:16.250Z,21.67
